Kimberley, Canada
Current Conditions -  °F | °C
As of 11:00 PM on Tuesday 25 Nov 2014 (Local Time) from CYXC Reporting Station
Light Snow Light Snow  
Wind Chill: 28°   Ceiling: 4500
Heat Index: 28°   Visibility: 6mi
Dew Point: 27°   Wind: 2mph
Humidity: 93%   Direction: NA
Pressure: 30.15"   Gusts: NA
Location:  49.68°N, 115.98°W
Report Text: CYXC 260600Z VRB02KT 6SM -SN SCT020 OVC045 M02/M03 A3015 RMK SC3SC5 SLP246
Loading
Personal Weather Stations






























Interactive Weather Map New forecast layout! Learn more

10-Day Weather Forecast

Advertisements
Track Severe Weather on mobile